Terminal Aerodrome Forecast
Issued by NWS

Home | Current Version | Previous Version | Text Only | Print | Product List | Glossary On
Versions: 1 2 3 4 5 6 7 8 9 10 11 12
536
FTUS46 KLOX 190557
TAFBUR
TAF
KBUR 190557Z 1906/2006 13006KT P6SM SKC
     FM190800 VRB03KT P6SM SKC
     FM191300 VRB03KT 5SM BR SCT004
      TEMPO 1914/1916 1/2SM FG OVC004
     FM191700 14005KT P6SM SCT250
     FM192100 18008KT P6SM BKN250
     FM200300 VRB03KT P6SM SCT010 BKN250=

USA.gov is the U.S. government's official web portal to all federal, state and local government web resources and services.